Time;durP1;ratioP1;P1;durP2;ratioP2;P2;SDS_P1;SDS_P2;PMS_P1;PMS_P2;Temp;Humidity;BMP_temperature;BMP_pressure;BME280_temperature;BME280_humidity;BME280_pressure;Samples;Min_cycle;Max_cycle;Signal;HPM_P1;HPM_P2
2022/03/25 00:00:40;;;;;;;95.65;57.05;;;;;;;;;;5020355;28;20356;-69
2022/03/25 00:03:05;;;;;;;97.35;57.72;;;;;;;;;;5018573;28;20035;-70
2022/03/25 00:05:31;;;;;;;96.68;57.83;;;;;;;;;;5020054;28;20138;-70
2022/03/25 00:07:56;;;;;;;102.00;56.88;;;;;;;;;;5021034;28;20048;-70
2022/03/25 00:10:22;;;;;;;99.30;56.17;;;;;;;;;;5019092;28;20069;-69
2022/03/25 00:12:50;;;;;;;94.20;56.42;;;;;;;;;;5019137;28;20037;-70
2022/03/25 00:15:16;;;;;;;100.78;57.45;;;;;;;;;;5017570;28;20033;-70
2022/03/25 00:17:44;;;;;;;97.75;56.72;;;;;;;;;;5020230;28;20116;-70
2022/03/25 00:20:12;;;;;;;101.65;58.53;;;;;;;;;;5019341;28;20064;-70
2022/03/25 00:22:40;;;;;;;97.97;58.65;;;;;;;;;;5000965;28;20029;-70
2022/03/25 00:25:08;;;;;;;110.57;62.33;;;;;;;;;;5001268;28;20056;-70
2022/03/25 00:27:33;;;;;;;109.13;61.97;;;;;;;;;;5020976;28;20060;-69
2022/03/25 00:29:59;;;;;;;111.78;63.45;;;;;;;;;;5002621;28;20548;-70
2022/03/25 00:32:25;;;;;;;110.95;63.13;;;;;;;;;;5000716;28;20045;-69
2022/03/25 00:34:52;;;;;;;110.53;62.92;;;;;;;;;;5005553;28;20218;-70
2022/03/25 00:37:18;;;;;;;109.13;63.10;;;;;;;;;;5018294;28;20071;-70
2022/03/25 00:39:44;;;;;;;112.93;64.88;;;;;;;;;;5002084;28;20041;-70
2022/03/25 00:42:13;;;;;;;113.40;64.43;;;;;;;;;;5017730;28;20501;-69
2022/03/25 00:44:39;;;;;;;108.88;62.22;;;;;;;;;;5000843;28;20060;-70
2022/03/25 00:47:05;;;;;;;111.93;63.72;;;;;;;;;;5019414;28;20215;-70
2022/03/25 00:49:35;;;;;;;109.53;62.85;;;;;;;;;;5004744;28;20133;-70
2022/03/25 00:52:01;;;;;;;111.85;64.43;;;;;;;;;;5000696;28;20128;-70
2022/03/25 00:54:36;;;;;;;119.10;64.50;;;;;;;;;;5019932;28;20496;-70
2022/03/25 00:57:02;;;;;;;117.22;64.88;;;;;;;;;;5002140;28;20337;-69
2022/03/25 00:59:27;;;;;;;116.80;64.57;;;;;;;;;;5001245;28;20068;-70
2022/03/25 01:01:53;;;;;;;115.97;63.67;;;;;;;;;;5017698;28;20464;-70
2022/03/25 01:04:18;;;;;;;115.43;63.97;;;;;;;;;;5018530;28;20563;-69
2022/03/25 01:06:43;;;;;;;119.70;66.95;;;;;;;;;;5019184;28;20132;-69
2022/03/25 01:09:10;;;;;;;119.32;65.22;;;;;;;;;;5001372;28;20507;-69
2022/03/25 01:11:43;;;;;;;117.32;64.18;;;;;;;;;;5000199;28;20033;-69
2022/03/25 01:14:09;;;;;;;121.35;67.25;;;;;;;;;;5002366;28;20418;-69
2022/03/25 01:16:35;;;;;;;123.20;65.63;;;;;;;;;;5018702;28;20030;-70
2022/03/25 01:19:03;;;;;;;121.45;66.32;;;;;;;;;;4999882;28;20121;-70
2022/03/25 01:21:28;;;;;;;117.47;64.97;;;;;;;;;;5016724;28;20053;-70
2022/03/25 01:23:54;;;;;;;125.43;66.53;;;;;;;;;;4987809;28;20125;-69
2022/03/25 01:26:19;;;;;;;120.30;65.47;;;;;;;;;;5004520;28;20021;-69
2022/03/25 01:28:45;;;;;;;123.32;66.72;;;;;;;;;;5001697;28;20433;-70
2022/03/25 01:31:10;;;;;;;121.07;67.55;;;;;;;;;;5018150;28;20052;-70
2022/03/25 01:33:37;;;;;;;122.45;66.15;;;;;;;;;;5019369;28;20667;-69
2022/03/25 01:36:03;;;;;;;130.63;68.75;;;;;;;;;;5019309;28;20028;-69
2022/03/25 01:38:28;;;;;;;131.15;68.63;;;;;;;;;;5018313;28;20538;-69
2022/03/25 01:40:54;;;;;;;122.97;66.40;;;;;;;;;;5019080;28;21949;-70
2022/03/25 01:43:19;;;;;;;130.18;69.32;;;;;;;;;;5018004;28;20623;-68
2022/03/25 01:45:47;;;;;;;127.68;69.53;;;;;;;;;;5018859;28;20751;-69
2022/03/25 01:48:14;;;;;;;130.70;68.32;;;;;;;;;;5001513;28;20142;-70
2022/03/25 01:50:41;;;;;;;123.82;68.30;;;;;;;;;;5018788;28;20085;-69
2022/03/25 01:53:17;;;;;;;132.70;69.10;;;;;;;;;;5003771;28;20067;-70
2022/03/25 01:55:50;;;;;;;134.05;68.90;;;;;;;;;;5016442;28;20029;-70
2022/03/25 01:58:15;;;;;;;129.65;69.40;;;;;;;;;;5000461;28;20059;-70
2022/03/25 02:00:41;;;;;;;134.02;68.43;;;;;;;;;;5017361;28;20749;-70
2022/03/25 02:03:06;;;;;;;132.35;70.38;;;;;;;;;;5017599;28;20017;-69
2022/03/25 02:05:31;;;;;;;131.95;69.90;;;;;;;;;;4989576;28;20435;-69
2022/03/25 02:07:57;;;;;;;134.90;67.15;;;;;;;;;;4999072;28;20069;-69
2022/03/25 02:10:24;;;;;;;130.98;68.95;;;;;;;;;;5006662;28;20068;-69
2022/03/25 02:12:51;;;;;;;130.45;69.05;;;;;;;;;;5018705;28;20034;-69
2022/03/25 02:15:17;;;;;;;127.38;67.55;;;;;;;;;;5000683;28;20095;-69
2022/03/25 02:17:44;;;;;;;127.72;69.10;;;;;;;;;;4999469;28;20033;-69
2022/03/25 02:20:12;;;;;;;130.95;68.55;;;;;;;;;;5004657;28;20235;-69
2022/03/25 02:22:44;;;;;;;129.60;69.63;;;;;;;;;;5004733;28;20368;-70
2022/03/25 02:25:11;;;;;;;128.73;68.25;;;;;;;;;;5000656;28;20033;-70
2022/03/25 02:27:37;;;;;;;130.27;69.72;;;;;;;;;;5000725;28;20120;-70
2022/03/25 02:30:04;;;;;;;132.13;70.57;;;;;;;;;;5017114;28;20154;-70
2022/03/25 02:32:29;;;;;;;133.23;70.85;;;;;;;;;;4998514;28;20064;-71
2022/03/25 02:34:55;;;;;;;131.40;70.70;;;;;;;;;;5019073;28;20304;-70
2022/03/25 02:37:20;;;;;;;124.95;67.68;;;;;;;;;;5000443;28;20029;-70
2022/03/25 02:39:48;;;;;;;129.55;70.38;;;;;;;;;;5021295;28;20447;-70
2022/03/25 02:42:16;;;;;;;128.43;65.65;;;;;;;;;;5004331;28;20685;-70
2022/03/25 02:44:41;;;;;;;136.07;71.15;;;;;;;;;;5019104;28;22025;-69
2022/03/25 02:47:06;;;;;;;131.57;69.25;;;;;;;;;;5021769;28;20397;-70
2022/03/25 02:49:32;;;;;;;132.82;65.85;;;;;;;;;;5003456;28;20048;-70
2022/03/25 02:51:57;;;;;;;129.05;67.78;;;;;;;;;;5020871;28;20033;-69
2022/03/25 02:54:22;;;;;;;138.57;70.22;;;;;;;;;;5021591;28;20179;-69
2022/03/25 02:56:47;;;;;;;143.35;72.10;;;;;;;;;;5022285;28;20214;-69
2022/03/25 02:59:13;;;;;;;137.00;68.68;;;;;;;;;;5021770;28;20149;-69
2022/03/25 03:01:41;;;;;;;135.50;69.57;;;;;;;;;;5021940;28;20037;-69
2022/03/25 03:04:06;;;;;;;138.25;68.88;;;;;;;;;;5021974;28;20056;-69
2022/03/25 03:06:32;;;;;;;135.00;69.07;;;;;;;;;;5020439;28;20132;-69
2022/03/25 03:08:59;;;;;;;143.50;72.28;;;;;;;;;;5019678;28;20532;-70
2022/03/25 03:11:28;;;;;;;133.82;67.82;;;;;;;;;;5021891;28;20210;-70
2022/03/25 03:13:56;;;;;;;133.32;66.38;;;;;;;;;;5002502;28;20483;-70
2022/03/25 03:16:21;;;;;;;139.00;70.00;;;;;;;;;;5020596;28;20574;-71
2022/03/25 03:18:49;;;;;;;134.60;69.13;;;;;;;;;;5002592;28;20163;-70
2022/03/25 03:21:14;;;;;;;135.52;68.43;;;;;;;;;;5009021;28;20587;-71
2022/03/25 03:23:39;;;;;;;133.10;68.30;;;;;;;;;;5017259;28;20024;-71
2022/03/25 03:26:07;;;;;;;147.73;70.07;;;;;;;;;;5020886;28;20036;-70
2022/03/25 03:28:32;;;;;;;140.60;70.28;;;;;;;;;;5021147;28;20021;-70
2022/03/25 03:30:57;;;;;;;143.95;70.00;;;;;;;;;;5008022;28;20033;-71
2022/03/25 03:33:23;;;;;;;143.80;67.97;;;;;;;;;;5001788;28;20029;-70
2022/03/25 03:35:50;;;;;;;139.38;70.25;;;;;;;;;;5019840;28;20037;-71
2022/03/25 03:38:16;;;;;;;140.85;69.15;;;;;;;;;;5003723;28;20037;-70
2022/03/25 03:40:42;;;;;;;143.52;70.13;;;;;;;;;;5019592;28;20156;-70
2022/03/25 03:43:07;;;;;;;148.02;70.20;;;;;;;;;;5021167;28;20173;-70
2022/03/25 03:45:33;;;;;;;147.63;70.30;;;;;;;;;;5008056;28;20039;-70
2022/03/25 03:48:01;;;;;;;145.40;69.72;;;;;;;;;;5002180;28;20123;-70
2022/03/25 03:50:27;;;;;;;144.82;70.63;;;;;;;;;;5020780;28;20033;-70
2022/03/25 03:52:54;;;;;;;141.52;68.93;;;;;;;;;;5002022;28;20037;-69
2022/03/25 03:55:22;;;;;;;148.32;70.22;;;;;;;;;;5019198;28;20210;-70
2022/03/25 03:57:48;;;;;;;139.95;67.90;;;;;;;;;;5020357;28;20052;-70
2022/03/25 04:00:13;;;;;;;140.82;67.32;;;;;;;;;;5020093;28;22213;-70
2022/03/25 04:02:39;;;;;;;143.18;69.00;;;;;;;;;;5000686;28;20025;-70
2022/03/25 04:05:05;;;;;;;145.35;69.68;;;;;;;;;;5019688;28;20170;-69
2022/03/25 04:07:39;;;;;;;149.75;68.63;;;;;;;;;;5021898;28;20293;-70
2022/03/25 04:10:04;;;;;;;149.80;70.05;;;;;;;;;;5001762;28;20243;-70
2022/03/25 04:12:29;;;;;;;146.90;68.60;;;;;;;;;;4990177;28;20134;-70
2022/03/25 04:14:54;;;;;;;148.07;69.25;;;;;;;;;;5018935;28;20099;-70
2022/03/25 04:17:24;;;;;;;142.50;66.60;;;;;;;;;;5021714;28;20099;-71
2022/03/25 04:19:50;;;;;;;145.48;65.32;;;;;;;;;;5001429;28;20030;-70
2022/03/25 04:22:18;;;;;;;143.35;65.13;;;;;;;;;;5020008;28;20039;-70
2022/03/25 04:24:45;;;;;;;141.27;67.10;;;;;;;;;;5020145;28;20144;-70
2022/03/25 04:27:13;;;;;;;143.43;67.57;;;;;;;;;;5020029;28;20033;-70
2022/03/25 04:29:39;;;;;;;148.55;69.35;;;;;;;;;;4984729;28;20047;-69
2022/03/25 04:32:04;;;;;;;145.10;69.05;;;;;;;;;;5019883;28;20215;-70
2022/03/25 04:34:30;;;;;;;147.10;66.43;;;;;;;;;;5001242;28;20082;-69
2022/03/25 04:36:55;;;;;;;146.40;68.00;;;;;;;;;;5019507;28;21864;-71
2022/03/25 04:39:25;;;;;;;149.25;67.65;;;;;;;;;;5019123;28;20080;-69
2022/03/25 04:41:50;;;;;;;136.18;64.38;;;;;;;;;;5000648;28;20795;-69
2022/03/25 04:44:17;;;;;;;130.68;62.63;;;;;;;;;;5019032;28;20040;-69
2022/03/25 04:46:43;;;;;;;145.43;65.15;;;;;;;;;;5018077;28;20037;-69
2022/03/25 04:49:11;;;;;;;134.70;64.50;;;;;;;;;;5019212;28;20391;-76
2022/03/25 04:51:37;;;;;;;141.75;64.13;;;;;;;;;;5021542;28;20208;-74
2022/03/25 04:54:03;;;;;;;136.63;65.00;;;;;;;;;;5000643;28;20032;-74
2022/03/25 04:56:29;;;;;;;144.48;64.72;;;;;;;;;;5018595;28;20239;-75
2022/03/25 04:58:56;;;;;;;140.55;65.75;;;;;;;;;;5021113;28;20039;-75
2022/03/25 05:01:24;;;;;;;150.10;66.07;;;;;;;;;;5002007;28;20047;-75
2022/03/25 05:03:49;;;;;;;144.73;65.50;;;;;;;;;;5001201;28;20520;-74
2022/03/25 05:06:14;;;;;;;140.15;63.03;;;;;;;;;;5020709;28;20086;-76
2022/03/25 05:08:42;;;;;;;142.20;65.05;;;;;;;;;;5001455;28;20060;-75
2022/03/25 05:11:10;;;;;;;134.32;62.33;;;;;;;;;;5018577;28;20042;-75
2022/03/25 05:13:35;;;;;;;148.02;65.40;;;;;;;;;;5007060;28;20122;-75
2022/03/25 05:16:00;;;;;;;153.52;67.85;;;;;;;;;;5000058;28;20064;-75
2022/03/25 05:18:25;;;;;;;141.75;64.80;;;;;;;;;;5018227;28;20025;-75
2022/03/25 05:20:53;;;;;;;133.07;61.33;;;;;;;;;;5004210;28;20036;-75
2022/03/25 05:23:22;;;;;;;138.85;62.17;;;;;;;;;;5018867;28;20036;-75
2022/03/25 05:25:48;;;;;;;146.43;64.70;;;;;;;;;;5018783;28;20033;-74
2022/03/25 05:28:15;;;;;;;150.48;64.85;;;;;;;;;;5018821;28;20036;-75
2022/03/25 05:30:42;;;;;;;141.18;62.38;;;;;;;;;;5005568;28;20029;-75
2022/03/25 05:33:08;;;;;;;139.52;62.70;;;;;;;;;;5018520;28;20166;-75
2022/03/25 05:35:33;;;;;;;131.00;62.30;;;;;;;;;;5019766;28;20208;-75
2022/03/25 05:38:01;;;;;;;144.52;64.55;;;;;;;;;;5017490;28;20037;-75
2022/03/25 05:40:27;;;;;;;138.80;64.38;;;;;;;;;;4989632;28;20087;-75
2022/03/25 05:42:53;;;;;;;145.32;62.83;;;;;;;;;;5019251;28;20143;-75
2022/03/25 05:45:19;;;;;;;131.77;62.42;;;;;;;;;;5019037;28;20032;-75
2022/03/25 05:47:44;;;;;;;148.82;63.08;;;;;;;;;;5017674;28;20031;-75
2022/03/25 05:50:14;;;;;;;149.15;64.75;;;;;;;;;;5017686;28;20107;-75
2022/03/25 05:52:56;;;;;;;138.25;61.28;;;;;;;;;;4942335;28;20526;-75
2022/03/25 05:55:21;;;;;;;152.50;66.95;;;;;;;;;;4922575;28;20050;-76
2022/03/25 05:57:49;;;;;;;142.93;64.97;;;;;;;;;;4944327;28;20750;-75
2022/03/25 06:00:15;;;;;;;144.85;62.90;;;;;;;;;;4943264;28;20086;-75
2022/03/25 06:02:42;;;;;;;139.88;65.13;;;;;;;;;;4947265;28;20038;-75
2022/03/25 06:05:07;;;;;;;142.63;65.28;;;;;;;;;;4925714;28;20125;-76
2022/03/25 06:07:39;;;;;;;145.75;66.55;;;;;;;;;;4942861;28;20047;-76
2022/03/25 06:10:13;;;;;;;143.40;64.90;;;;;;;;;;4943114;28;20050;-76
2022/03/25 06:12:40;;;;;;;146.80;66.28;;;;;;;;;;4947093;28;20042;-76
2022/03/25 06:15:06;;;;;;;150.88;67.45;;;;;;;;;;4946496;28;20073;-75
2022/03/25 06:17:31;;;;;;;159.23;70.15;;;;;;;;;;4947031;28;20114;-76
2022/03/25 06:19:57;;;;;;;152.55;70.13;;;;;;;;;;4946100;28;20055;-76
2022/03/25 06:22:24;;;;;;;151.27;68.10;;;;;;;;;;4930748;28;20065;-75
2022/03/25 06:24:52;;;;;;;157.40;69.97;;;;;;;;;;5013526;28;20103;-74
2022/03/25 06:27:18;;;;;;;156.88;72.10;;;;;;;;;;5020136;28;20324;-73
2022/03/25 06:29:44;;;;;;;159.38;72.38;;;;;;;;;;5021254;28;20132;-73
2022/03/25 06:32:09;;;;;;;162.23;71.25;;;;;;;;;;5021710;28;20519;-73
2022/03/25 06:34:35;;;;;;;167.93;74.32;;;;;;;;;;5020253;28;20822;-73
2022/03/25 06:37:03;;;;;;;153.63;70.72;;;;;;;;;;5020556;28;20091;-73
2022/03/25 06:39:31;;;;;;;163.45;73.78;;;;;;;;;;5019850;28;20032;-73
2022/03/25 06:41:56;;;;;;;157.75;72.35;;;;;;;;;;5001033;28;20083;-73
2022/03/25 06:44:22;;;;;;;165.02;73.78;;;;;;;;;;5001454;28;20040;-73
2022/03/25 06:46:47;;;;;;;162.00;74.63;;;;;;;;;;5007707;28;20531;-74
2022/03/25 06:49:15;;;;;;;161.07;73.50;;;;;;;;;;5008064;28;20037;-73
2022/03/25 06:51:44;;;;;;;160.65;72.20;;;;;;;;;;5023153;28;20029;-74
2022/03/25 06:54:10;;;;;;;156.55;71.50;;;;;;;;;;5021371;28;20364;-73
2022/03/25 06:56:36;;;;;;;159.93;75.45;;;;;;;;;;5018879;28;20334;-72
2022/03/25 06:59:02;;;;;;;146.70;73.10;;;;;;;;;;5020312;28;20040;-74
2022/03/25 07:01:32;;;;;;;150.77;73.82;;;;;;;;;;5021814;28;20033;-73
2022/03/25 07:04:02;;;;;;;153.43;73.22;;;;;;;;;;5023100;28;20422;-72
2022/03/25 07:06:29;;;;;;;151.65;73.60;;;;;;;;;;5021097;28;20696;-72
2022/03/25 07:08:55;;;;;;;144.60;73.47;;;;;;;;;;5019903;28;20275;-75
2022/03/25 07:11:24;;;;;;;136.25;72.53;;;;;;;;;;5021609;28;20052;-72
2022/03/25 07:13:50;;;;;;;119.45;67.07;;;;;;;;;;5020581;28;20037;-73
2022/03/25 07:16:17;;;;;;;111.30;62.15;;;;;;;;;;5020228;28;20049;-75
2022/03/25 07:18:42;;;;;;;108.07;64.18;;;;;;;;;;5020635;28;20040;-74
2022/03/25 07:21:08;;;;;;;96.97;60.42;;;;;;;;;;4991836;28;20114;-74
2022/03/25 07:23:33;;;;;;;94.25;58.92;;;;;;;;;;5001702;28;20093;-71
2022/03/25 07:26:04;;;;;;;87.13;56.80;;;;;;;;;;5019535;28;20463;-73
2022/03/25 07:28:30;;;;;;;87.38;56.88;;;;;;;;;;5019181;28;20672;-73
2022/03/25 07:30:58;;;;;;;82.93;55.92;;;;;;;;;;5019861;28;20040;-72
2022/03/25 07:33:23;;;;;;;80.45;54.42;;;;;;;;;;5020329;28;20040;-72
2022/03/25 07:35:51;;;;;;;77.40;52.45;;;;;;;;;;5021026;28;20040;-72
2022/03/25 07:38:17;;;;;;;80.65;53.45;;;;;;;;;;5020137;28;20045;-73
2022/03/25 07:40:42;;;;;;;72.95;50.58;;;;;;;;;;5018861;28;20029;-73
2022/03/25 07:43:08;;;;;;;73.90;50.38;;;;;;;;;;5003080;28;20272;-73
2022/03/25 07:45:33;;;;;;;70.10;48.90;;;;;;;;;;5020620;28;20052;-72
2022/03/25 07:47:59;;;;;;;65.97;46.72;;;;;;;;;;5020926;28;20028;-72
2022/03/25 07:50:25;;;;;;;62.80;46.90;;;;;;;;;;5021161;28;20536;-72
2022/03/25 07:52:51;;;;;;;66.13;47.90;;;;;;;;;;5022198;28;20040;-75
2022/03/25 07:55:20;;;;;;;66.00;47.97;;;;;;;;;;5001512;28;20137;-74
2022/03/25 07:57:46;;;;;;;69.32;47.85;;;;;;;;;;5019780;28;20466;-74
2022/03/25 08:00:11;;;;;;;68.07;48.83;;;;;;;;;;5001491;28;20021;-72
2022/03/25 08:02:37;;;;;;;64.47;47.72;;;;;;;;;;5020565;28;20470;-72
2022/03/25 08:05:06;;;;;;;66.47;48.08;;;;;;;;;;5019647;28;20193;-73
2022/03/25 08:07:41;;;;;;;65.35;45.17;;;;;;;;;;5021593;28;20206;-73
2022/03/25 08:10:09;;;;;;;61.78;43.03;;;;;;;;;;5004040;28;20572;-73
2022/03/25 08:12:35;;;;;;;55.42;41.83;;;;;;;;;;5008258;28;20457;-72
2022/03/25 08:15:01;;;;;;;58.78;41.75;;;;;;;;;;5019383;28;20037;-72
2022/03/25 08:17:26;;;;;;;57.80;40.97;;;;;;;;;;5003305;28;20475;-73
2022/03/25 08:19:51;;;;;;;56.25;39.80;;;;;;;;;;5019472;28;20029;-73
2022/03/25 08:22:18;;;;;;;51.13;38.17;;;;;;;;;;5002505;28;20037;-73
2022/03/25 08:30:12;;;;;;;56.22;40.15;;;;;;;;;;5018784;28;20034;-71
2022/03/25 08:32:40;;;;;;;57.58;41.15;;;;;;;;;;5007152;28;20194;-72
2022/03/25 08:35:06;;;;;;;55.25;40.35;;;;;;;;;;5004507;28;20032;-72
2022/03/25 08:37:34;;;;;;;54.10;40.13;;;;;;;;;;5019213;28;20028;-72
2022/03/25 08:39:59;;;;;;;50.28;38.38;;;;;;;;;;5001583;28;20320;-72
2022/03/25 08:42:24;;;;;;;53.38;38.33;;;;;;;;;;5019623;28;20029;-71
2022/03/25 08:44:50;;;;;;;56.40;39.15;;;;;;;;;;5004074;28;20064;-71
2022/03/25 08:47:16;;;;;;;58.25;40.92;;;;;;;;;;5020200;28;20053;-71
2022/03/25 08:49:41;;;;;;;55.47;39.75;;;;;;;;;;5019658;28;20043;-70
2022/03/25 08:52:07;;;;;;;58.13;40.47;;;;;;;;;;5000421;28;20033;-70
2022/03/25 08:54:34;;;;;;;59.00;40.78;;;;;;;;;;5017953;28;20143;-70
2022/03/25 08:57:02;;;;;;;57.08;41.50;;;;;;;;;;4984228;28;21631;-70
2022/03/25 08:59:31;;;;;;;53.08;39.53;;;;;;;;;;5018244;28;20232;-71
2022/03/25 09:01:56;;;;;;;45.33;32.75;;;;;;;;;;5018053;28;20697;-71
2022/03/25 09:04:24;;;;;;;47.13;32.80;;;;;;;;;;5017381;28;20049;-70
2022/03/25 09:06:52;;;;;;;44.20;32.40;;;;;;;;;;5004613;28;20307;-69
2022/03/25 09:09:17;;;;;;;46.45;32.90;;;;;;;;;;5016584;28;20575;-68
2022/03/25 09:11:45;;;;;;;51.15;33.65;;;;;;;;;;4999252;28;20056;-69
2022/03/25 09:14:11;;;;;;;49.15;33.58;;;;;;;;;;5017457;28;20032;-69
2022/03/25 09:16:37;;;;;;;44.35;31.88;;;;;;;;;;5005095;28;20243;-71
2022/03/25 09:19:03;;;;;;;48.42;32.70;;;;;;;;;;4983740;28;20041;-71
2022/03/25 09:21:28;;;;;;;48.13;32.97;;;;;;;;;;5021233;28;20027;-71
2022/03/25 09:23:53;;;;;;;42.85;31.80;;;;;;;;;;5019894;28;20032;-71
2022/03/25 09:26:21;;;;;;;48.65;34.13;;;;;;;;;;5003909;28;20187;-66
2022/03/25 09:28:47;;;;;;;46.10;32.67;;;;;;;;;;5000431;28;20353;-65
2022/03/25 09:31:12;;;;;;;47.88;32.63;;;;;;;;;;5017606;28;20182;-68
2022/03/25 09:33:37;;;;;;;47.03;33.63;;;;;;;;;;5016818;28;20099;-66
2022/03/25 09:36:03;;;;;;;45.08;32.17;;;;;;;;;;5017657;28;20534;-66
2022/03/25 09:38:28;;;;;;;46.10;31.48;;;;;;;;;;5018081;28;20704;-67
2022/03/25 09:40:55;;;;;;;46.30;32.03;;;;;;;;;;5018134;28;20496;-66
2022/03/25 09:43:22;;;;;;;43.25;30.33;;;;;;;;;;5004888;28;20119;-66
2022/03/25 09:45:47;;;;;;;44.78;30.17;;;;;;;;;;4999390;28;20179;-66
2022/03/25 09:48:15;;;;;;;43.53;30.67;;;;;;;;;;4982486;28;20464;-66
2022/03/25 09:50:41;;;;;;;43.25;31.00;;;;;;;;;;5018913;28;22309;-66
2022/03/25 09:53:07;;;;;;;42.38;29.38;;;;;;;;;;5015144;28;20025;-66
2022/03/25 09:55:37;;;;;;;39.60;28.58;;;;;;;;;;5017343;28;21981;-67
2022/03/25 09:58:02;;;;;;;42.08;28.52;;;;;;;;;;5000473;28;20392;-67
2022/03/25 10:00:27;;;;;;;37.25;26.65;;;;;;;;;;5001947;28;20097;-66
2022/03/25 10:02:55;;;;;;;37.83;26.42;;;;;;;;;;5017499;28;20028;-66
2022/03/25 10:05:23;;;;;;;37.00;26.83;;;;;;;;;;5004324;28;20032;-66
2022/03/25 10:07:50;;;;;;;53.03;34.53;;;;;;;;;;5018816;28;20051;-66
2022/03/25 10:10:20;;;;;;;57.95;40.65;;;;;;;;;;5018892;28;20059;-66
2022/03/25 10:12:47;;;;;;;;;;;;;;;;;;5018412;28;20128;-71
2022/03/25 10:15:13;;;;;;;66.38;43.83;;;;;;;;;;5017857;28;19928;-69
2022/03/25 10:17:45;;;;;;;63.95;42.90;;;;;;;;;;5017714;28;20411;-68
2022/03/25 10:20:11;;;;;;;65.57;44.80;;;;;;;;;;5017431;28;20021;-66
2022/03/25 10:22:37;;;;;;;65.57;46.42;;;;;;;;;;5000752;28;20071;-67
2022/03/25 10:25:09;;;;;;;67.30;45.30;;;;;;;;;;4999707;28;20289;-68
2022/03/25 10:27:35;;;;;;;66.75;46.97;;;;;;;;;;5018175;28;20048;-66
2022/03/25 10:30:01;;;;;;;67.93;45.38;;;;;;;;;;5016560;28;20039;-67
2022/03/25 10:32:28;;;;;;;68.22;46.80;;;;;;;;;;5000517;28;20032;-67
2022/03/25 10:35:02;;;;;;;68.03;47.75;;;;;;;;;;5018953;28;20037;-68
2022/03/25 10:37:28;;;;;;;68.13;47.53;;;;;;;;;;5019762;28;20327;-67
2022/03/25 10:39:53;;;;;;;66.20;46.72;;;;;;;;;;5000318;28;20610;-66
2022/03/25 10:42:19;;;;;;;60.97;41.97;;;;;;;;;;4999400;28;21324;-68
2022/03/25 10:44:49;;;;;;;66.80;46.60;;;;;;;;;;5015380;28;20092;-67
2022/03/25 10:47:14;;;;;;;59.55;41.80;;;;;;;;;;5017886;28;20078;-68
2022/03/25 10:49:43;;;;;;;59.00;43.78;;;;;;;;;;5017299;28;20075;-68
2022/03/25 10:52:30;;;;;;;66.57;45.60;;;;;;;;;;5003467;28;20111;-68
2022/03/25 10:55:15;;;;;;;67.97;45.40;;;;;;;;;;5017652;28;20030;-67
2022/03/25 10:58:12;;;;;;;39.08;28.38;;;;;;;;;;5021203;28;20087;-67
2022/03/25 11:00:37;;;;;;;60.15;43.15;;;;;;;;;;4985371;28;20094;-68
2022/03/25 11:03:03;;;;;;;51.67;36.22;;;;;;;;;;5021933;28;20041;-67
2022/03/25 11:05:30;;;;;;;53.78;40.40;;;;;;;;;;5021009;28;20025;-67
2022/03/25 11:07:56;;;;;;;35.95;25.42;;;;;;;;;;5022021;28;22015;-69
2022/03/25 11:10:21;;;;;;;38.60;26.50;;;;;;;;;;5018415;28;20037;-67
2022/03/25 11:12:52;;;;;;;48.08;36.85;;;;;;;;;;5002760;28;20334;-67
2022/03/25 11:15:19;;;;;;;53.03;37.15;;;;;;;;;;5019251;28;20690;-67
2022/03/25 11:17:47;;;;;;;47.63;33.72;;;;;;;;;;5020274;28;20029;-68
2022/03/25 11:20:13;;;;;;;50.53;37.85;;;;;;;;;;5020392;28;20221;-68
2022/03/25 11:22:48;;;;;;;46.97;35.70;;;;;;;;;;5020193;28;20027;-68
2022/03/25 11:25:17;;;;;;;53.20;38.35;;;;;;;;;;5019762;28;20044;-67
2022/03/25 11:27:47;;;;;;;54.70;40.22;;;;;;;;;;4999557;28;20037;-69
2022/03/25 11:30:13;;;;;;;55.97;39.93;;;;;;;;;;5018276;28;20029;-71
2022/03/25 11:33:03;;;;;;;54.47;39.67;;;;;;;;;;4985595;28;20165;-71
2022/03/25 11:35:30;;;;;;;56.50;40.00;;;;;;;;;;4998906;28;20041;-71
2022/03/25 11:38:11;;;;;;;56.95;40.85;;;;;;;;;;5019459;28;20645;-70
2022/03/25 11:40:39;;;;;;;55.43;41.33;;;;;;;;;;5020564;28;20111;-71
2022/03/25 11:43:15;;;;;;;57.88;41.63;;;;;;;;;;5019239;28;20195;-71
2022/03/25 11:45:41;;;;;;;56.90;42.65;;;;;;;;;;5020550;28;20028;-71
2022/03/25 11:48:10;;;;;;;56.15;42.15;;;;;;;;;;5022474;28;20059;-71
2022/03/25 11:50:40;;;;;;;58.92;42.53;;;;;;;;;;5019300;28;20029;-70
2022/03/25 11:53:11;;;;;;;57.50;41.58;;;;;;;;;;5021216;28;20160;-71
2022/03/25 11:55:51;;;;;;;51.53;39.78;;;;;;;;;;5019642;28;20593;-71
2022/03/25 11:58:17;;;;;;;59.15;42.95;;;;;;;;;;5020265;28;20421;-71
2022/03/25 12:00:42;;;;;;;60.08;43.33;;;;;;;;;;5019407;28;20039;-71
2022/03/25 12:03:08;;;;;;;59.42;43.40;;;;;;;;;;5001787;28;20924;-71
2022/03/25 12:05:34;;;;;;;60.03;41.05;;;;;;;;;;5018195;28;20041;-72
2022/03/25 12:08:18;;;;;;;56.65;40.42;;;;;;;;;;5005683;28;20045;-71
2022/03/25 12:10:49;;;;;;;61.47;42.40;;;;;;;;;;5019557;28;20049;-71
2022/03/25 12:13:15;;;;;;;58.40;43.58;;;;;;;;;;5020846;28;20337;-71
2022/03/25 12:15:41;;;;;;;60.63;42.63;;;;;;;;;;4999998;28;20045;-71
2022/03/25 12:18:25;;;;;;;64.75;44.13;;;;;;;;;;5001224;28;20017;-70
2022/03/25 12:20:50;;;;;;;62.50;45.53;;;;;;;;;;5019128;28;21418;-71
2022/03/25 12:23:16;;;;;;;63.33;44.90;;;;;;;;;;5020027;28;20183;-70
2022/03/25 12:25:43;;;;;;;65.72;46.50;;;;;;;;;;5020406;28;20495;-69
2022/03/25 12:28:09;;;;;;;69.45;46.22;;;;;;;;;;5000448;28;20045;-70
2022/03/25 12:30:37;;;;;;;64.78;45.28;;;;;;;;;;5018238;28;20090;-68
2022/03/25 12:33:07;;;;;;;64.45;46.55;;;;;;;;;;5018743;28;20090;-68
2022/03/25 12:35:37;;;;;;;67.63;46.85;;;;;;;;;;5018537;28;22206;-66
2022/03/25 12:38:05;;;;;;;66.30;46.65;;;;;;;;;;5018632;28;20402;-66
2022/03/25 12:40:32;;;;;;;62.67;45.13;;;;;;;;;;5019617;28;20021;-66
2022/03/25 12:42:58;;;;;;;63.92;44.90;;;;;;;;;;5000951;28;20037;-67
2022/03/25 12:45:35;;;;;;;60.95;42.65;;;;;;;;;;5003695;28;20381;-67
2022/03/25 12:48:12;;;;;;;57.75;41.53;;;;;;;;;;5001399;28;20447;-68
2022/03/25 12:50:48;;;;;;;65.10;47.53;;;;;;;;;;5017368;28;20462;-67
2022/03/25 12:53:14;;;;;;;61.58;44.13;;;;;;;;;;5019538;28;20035;-69
2022/03/25 12:55:43;;;;;;;58.90;44.20;;;;;;;;;;5002568;28;20029;-70
2022/03/25 12:58:10;;;;;;;60.95;44.00;;;;;;;;;;5001947;28;20029;-71
2022/03/25 13:00:36;;;;;;;57.47;43.08;;;;;;;;;;5018553;28;20043;-70
2022/03/25 13:03:01;;;;;;;63.60;44.83;;;;;;;;;;4989221;28;20667;-71
2022/03/25 13:05:29;;;;;;;60.25;41.85;;;;;;;;;;5018604;28;20059;-71
2022/03/25 13:07:57;;;;;;;58.33;40.35;;;;;;;;;;5019617;28;20412;-71
2022/03/25 13:10:23;;;;;;;30.60;19.63;;;;;;;;;;5018815;28;20073;-71
2022/03/25 13:12:54;;;;;;;30.38;18.30;;;;;;;;;;5017843;28;20029;-72
2022/03/25 13:15:26;;;;;;;34.53;18.00;;;;;;;;;;5018695;28;20043;-72
2022/03/25 13:17:53;;;;;;;34.92;21.40;;;;;;;;;;5018375;28;20044;-71
2022/03/25 13:20:29;;;;;;;31.60;17.88;;;;;;;;;;5019990;28;20163;-72
2022/03/25 13:23:05;;;;;;;30.45;17.15;;;;;;;;;;5001569;28;20538;-72
2022/03/25 13:25:36;;;;;;;28.67;16.55;;;;;;;;;;5020274;28;20234;-72
2022/03/25 13:28:03;;;;;;;26.33;15.48;;;;;;;;;;5017923;28;20362;-73
2022/03/25 13:30:29;;;;;;;26.50;14.95;;;;;;;;;;5017203;28;20211;-72
2022/03/25 13:32:55;;;;;;;27.67;17.17;;;;;;;;;;5017759;28;20877;-75
2022/03/25 13:35:21;;;;;;;27.38;17.50;;;;;;;;;;5017682;28;20090;-74
2022/03/25 13:37:56;;;;;;;25.17;15.85;;;;;;;;;;4973142;28;20052;-73
2022/03/25 13:40:50;;;;;;;27.52;17.13;;;;;;;;;;5017261;28;20055;-70
2022/03/25 13:43:21;;;;;;;27.67;15.70;;;;;;;;;;5017286;28;20029;-73
2022/03/25 13:46:01;;;;;;;27.38;15.60;;;;;;;;;;5017270;28;20036;-73
2022/03/25 13:48:42;;;;;;;30.70;17.17;;;;;;;;;;5017340;28;20029;-72
2022/03/25 13:51:19;;;;;;;31.10;18.52;;;;;;;;;;5018401;28;20184;-69
2022/03/25 13:53:45;;;;;;;29.95;17.02;;;;;;;;;;5018693;28;20020;-69
2022/03/25 13:56:14;;;;;;;29.80;17.60;;;;;;;;;;5019946;28;20036;-68
2022/03/25 13:58:45;;;;;;;31.58;16.70;;;;;;;;;;5018365;28;20484;-69
2022/03/25 14:01:11;;;;;;;32.47;19.00;;;;;;;;;;5018016;28;20029;-69
2022/03/25 14:03:37;;;;;;;32.88;18.88;;;;;;;;;;5018365;28;20059;-69
2022/03/25 14:06:15;;;;;;;33.30;18.15;;;;;;;;;;5016611;28;20044;-69
2022/03/25 14:08:40;;;;;;;33.30;18.55;;;;;;;;;;5018177;28;20132;-69
2022/03/25 14:11:07;;;;;;;29.45;19.42;;;;;;;;;;5000395;28;20043;-69
2022/03/25 14:13:32;;;;;;;35.72;19.60;;;;;;;;;;4984354;28;20033;-69
2022/03/25 14:16:18;;;;;;;30.02;18.15;;;;;;;;;;5016500;28;20033;-69
2022/03/25 14:18:48;;;;;;;34.05;18.95;;;;;;;;;;5001212;28;20093;-69